sensor_id;sensor_type;location;lat;lon;timestamp;P1;durP1;ratioP1;P2;durP2;ratioP2
10731;SDS011;5417;42.686;23.244;2022-09-01T00:10:34;16.27;;;14.77;;
10731;SDS011;5417;42.686;23.244;2022-09-01T00:19:28;13.97;;;12.73;;
10731;SDS011;5417;42.686;23.244;2022-09-01T00:21:59;15.90;;;14.33;;
10731;SDS011;5417;42.686;23.244;2022-09-01T00:24:27;14.67;;;13.37;;
10731;SDS011;5417;42.686;23.244;2022-09-01T00:30:17;15.13;;;13.73;;
10731;SDS011;5417;42.686;23.244;2022-09-01T00:36:06;18.07;;;16.33;;
10731;SDS011;5417;42.686;23.244;2022-09-01T00:38:39;19.00;;;17.30;;
10731;SDS011;5417;42.686;23.244;2022-09-01T00:47:50;16.67;;;15.37;;
10731;SDS011;5417;42.686;23.244;2022-09-01T00:57:01;16.53;;;15.23;;
10731;SDS011;5417;42.686;23.244;2022-09-01T01:03:02;16.57;;;15.17;;
10731;SDS011;5417;42.686;23.244;2022-09-01T01:23:11;16.97;;;15.43;;
10731;SDS011;5417;42.686;23.244;2022-09-01T01:32:47;17.37;;;15.77;;
10731;SDS011;5417;42.686;23.244;2022-09-01T02:30:05;21.70;;;19.53;;
10731;SDS011;5417;42.686;23.244;2022-09-01T02:35:57;18.53;;;16.70;;
10731;SDS011;5417;42.686;23.244;2022-09-01T02:38:26;17.63;;;15.93;;
10731;SDS011;5417;42.686;23.244;2022-09-01T02:51:03;18.23;;;16.53;;
10731;SDS011;5417;42.686;23.244;2022-09-01T03:00:10;16.77;;;15.27;;
10731;SDS011;5417;42.686;23.244;2022-09-01T03:02:46;16.93;;;15.43;;
10731;SDS011;5417;42.686;23.244;2022-09-01T03:08:39;16.20;;;14.90;;
10731;SDS011;5417;42.686;23.244;2022-09-01T03:32:04;16.00;;;14.60;;
10731;SDS011;5417;42.686;23.244;2022-09-01T03:37:52;17.00;;;15.50;;
10731;SDS011;5417;42.686;23.244;2022-09-01T03:43:42;16.93;;;15.43;;
10731;SDS011;5417;42.686;23.244;2022-09-01T03:49:32;19.00;;;17.07;;
10731;SDS011;5417;42.686;23.244;2022-09-01T03:55:22;17.53;;;15.83;;
10731;SDS011;5417;42.686;23.244;2022-09-01T04:04:08;18.97;;;17.07;;
10731;SDS011;5417;42.686;23.244;2022-09-01T04:09:59;17.17;;;15.37;;
10731;SDS011;5417;42.686;23.244;2022-09-01T04:26:25;35.50;;;19.83;;
10731;SDS011;5417;42.686;23.244;2022-09-01T04:35:44;17.00;;;15.43;;
10731;SDS011;5417;42.686;23.244;2022-09-01T04:58:38;13.87;;;12.77;;
10731;SDS011;5417;42.686;23.244;2022-09-01T05:17:28;15.07;;;13.70;;
10731;SDS011;5417;42.686;23.244;2022-09-01T05:26:41;15.35;;;13.88;;
10731;SDS011;5417;42.686;23.244;2022-09-01T05:29:10;14.57;;;13.07;;
10731;SDS011;5417;42.686;23.244;2022-09-01T05:31:41;14.30;;;12.90;;
10731;SDS011;5417;42.686;23.244;2022-09-01T05:34:12;14.75;;;13.55;;
10731;SDS011;5417;42.686;23.244;2022-09-01T05:39:36;14.07;;;12.77;;
10731;SDS011;5417;42.686;23.244;2022-09-01T05:42:03;13.55;;;12.40;;
10731;SDS011;5417;42.686;23.244;2022-09-01T05:44:32;13.57;;;12.23;;
10731;SDS011;5417;42.686;23.244;2022-09-01T05:46:59;14.63;;;13.35;;
10731;SDS011;5417;42.686;23.244;2022-09-01T05:49:28;13.00;;;11.90;;
10731;SDS011;5417;42.686;23.244;2022-09-01T05:51:57;14.13;;;12.75;;
10731;SDS011;5417;42.686;23.244;2022-09-01T05:54:26;13.90;;;12.80;;
10731;SDS011;5417;42.686;23.244;2022-09-01T05:56:53;13.47;;;12.37;;
10731;SDS011;5417;42.686;23.244;2022-09-01T05:59:21;13.63;;;12.63;;
10731;SDS011;5417;42.686;23.244;2022-09-01T06:01:49;14.80;;;13.60;;
10731;SDS011;5417;42.686;23.244;2022-09-01T06:04:17;14.32;;;13.18;;
10731;SDS011;5417;42.686;23.244;2022-09-01T06:06:46;15.87;;;14.37;;
10731;SDS011;5417;42.686;23.244;2022-09-01T06:09:14;16.57;;;15.10;;
10731;SDS011;5417;42.686;23.244;2022-09-01T06:11:43;17.17;;;14.67;;
10731;SDS011;5417;42.686;23.244;2022-09-01T06:14:13;14.90;;;13.47;;
10731;SDS011;5417;42.686;23.244;2022-09-01T06:16:40;14.47;;;13.23;;
10731;SDS011;5417;42.686;23.244;2022-09-01T06:19:25;14.93;;;13.68;;
10731;SDS011;5417;42.686;23.244;2022-09-01T06:21:54;15.77;;;14.43;;
10731;SDS011;5417;42.686;23.244;2022-09-01T06:24:22;16.20;;;14.70;;
10731;SDS011;5417;42.686;23.244;2022-09-01T06:26:48;16.02;;;14.57;;
10731;SDS011;5417;42.686;23.244;2022-09-01T06:29:15;17.77;;;16.13;;
10731;SDS011;5417;42.686;23.244;2022-09-01T06:31:47;18.08;;;16.58;;
10731;SDS011;5417;42.686;23.244;2022-09-01T06:34:31;18.17;;;16.52;;
10731;SDS011;5417;42.686;23.244;2022-09-01T06:37:02;20.83;;;18.83;;
10731;SDS011;5417;42.686;23.244;2022-09-01T06:39:29;18.52;;;16.73;;
10731;SDS011;5417;42.686;23.244;2022-09-01T06:41:56;21.77;;;19.75;;
10731;SDS011;5417;42.686;23.244;2022-09-01T06:44:26;22.58;;;20.63;;
10731;SDS011;5417;42.686;23.244;2022-09-01T06:46:57;22.00;;;19.15;;
10731;SDS011;5417;42.686;23.244;2022-09-01T06:49:25;26.98;;;23.45;;
10731;SDS011;5417;42.686;23.244;2022-09-01T06:51:56;23.17;;;20.60;;
10731;SDS011;5417;42.686;23.244;2022-09-01T06:54:25;24.93;;;22.50;;
10731;SDS011;5417;42.686;23.244;2022-09-01T06:56:53;24.57;;;22.10;;
10731;SDS011;5417;42.686;23.244;2022-09-01T06:59:21;26.27;;;22.07;;
10731;SDS011;5417;42.686;23.244;2022-09-01T07:01:55;25.43;;;22.73;;
10731;SDS011;5417;42.686;23.244;2022-09-01T07:04:25;25.93;;;23.33;;
10731;SDS011;5417;42.686;23.244;2022-09-01T07:06:53;26.23;;;23.70;;
10731;SDS011;5417;42.686;23.244;2022-09-01T07:09:21;27.13;;;24.23;;
10731;SDS011;5417;42.686;23.244;2022-09-01T07:11:50;28.93;;;24.63;;
10731;SDS011;5417;42.686;23.244;2022-09-01T07:14:19;28.23;;;25.27;;
10731;SDS011;5417;42.686;23.244;2022-09-01T07:16:47;27.07;;;24.23;;
10731;SDS011;5417;42.686;23.244;2022-09-01T07:19:15;30.43;;;25.77;;
10731;SDS011;5417;42.686;23.244;2022-09-01T07:21:42;29.10;;;26.17;;
10731;SDS011;5417;42.686;23.244;2022-09-01T07:24:12;26.80;;;24.07;;
10731;SDS011;5417;42.686;23.244;2022-09-01T07:26:42;28.77;;;24.87;;
10731;SDS011;5417;42.686;23.244;2022-09-01T07:29:15;29.50;;;26.50;;
10731;SDS011;5417;42.686;23.244;2022-09-01T07:31:46;30.47;;;27.23;;
10731;SDS011;5417;42.686;23.244;2022-09-01T07:34:14;31.50;;;27.17;;
10731;SDS011;5417;42.686;23.244;2022-09-01T07:36:42;28.70;;;25.57;;
10731;SDS011;5417;42.686;23.244;2022-09-01T07:39:10;27.83;;;24.83;;
10731;SDS011;5417;42.686;23.244;2022-09-01T07:41:39;29.07;;;25.43;;
10731;SDS011;5417;42.686;23.244;2022-09-01T07:44:08;30.07;;;26.83;;
10731;SDS011;5417;42.686;23.244;2022-09-01T07:46:40;28.20;;;25.27;;
10731;SDS011;5417;42.686;23.244;2022-09-01T07:49:08;28.17;;;25.57;;
10731;SDS011;5417;42.686;23.244;2022-09-01T07:54:56;27.70;;;24.90;;
10731;SDS011;5417;42.686;23.244;2022-09-01T08:00:45;26.37;;;23.57;;
10731;SDS011;5417;42.686;23.244;2022-09-01T08:03:15;26.17;;;23.67;;
10731;SDS011;5417;42.686;23.244;2022-09-01T08:05:43;26.33;;;23.47;;
10731;SDS011;5417;42.686;23.244;2022-09-01T08:08:11;23.63;;;21.10;;
10731;SDS011;5417;42.686;23.244;2022-09-01T08:10:38;26.17;;;23.37;;
10731;SDS011;5417;42.686;23.244;2022-09-01T08:13:06;25.50;;;22.73;;
10731;SDS011;5417;42.686;23.244;2022-09-01T08:15:34;22.57;;;20.23;;
10731;SDS011;5417;42.686;23.244;2022-09-01T08:18:03;22.53;;;20.33;;
10731;SDS011;5417;42.686;23.244;2022-09-01T08:20:32;23.60;;;21.20;;
10731;SDS011;5417;42.686;23.244;2022-09-01T08:23:02;22.95;;;20.75;;
10731;SDS011;5417;42.686;23.244;2022-09-01T08:25:29;21.02;;;18.83;;
10731;SDS011;5417;42.686;23.244;2022-09-01T08:27:57;23.80;;;21.48;;
10731;SDS011;5417;42.686;23.244;2022-09-01T08:30:25;22.03;;;20.03;;
10731;SDS011;5417;42.686;23.244;2022-09-01T08:32:52;21.20;;;18.98;;
10731;SDS011;5417;42.686;23.244;2022-09-01T08:35:19;24.55;;;22.08;;
10731;SDS011;5417;42.686;23.244;2022-09-01T08:37:47;24.42;;;19.90;;
10731;SDS011;5417;42.686;23.244;2022-09-01T08:40:15;19.52;;;17.70;;
10731;SDS011;5417;42.686;23.244;2022-09-01T08:42:51;21.00;;;19.00;;
10731;SDS011;5417;42.686;23.244;2022-09-01T08:45:26;20.67;;;18.80;;
10731;SDS011;5417;42.686;23.244;2022-09-01T08:47:59;19.80;;;17.88;;
10731;SDS011;5417;42.686;23.244;2022-09-01T08:50:33;18.63;;;16.65;;
10731;SDS011;5417;42.686;23.244;2022-09-01T08:53:03;17.75;;;15.95;;
10731;SDS011;5417;42.686;23.244;2022-09-01T08:55:36;17.80;;;16.00;;
10731;SDS011;5417;42.686;23.244;2022-09-01T08:58:07;18.98;;;17.00;;
10731;SDS011;5417;42.686;23.244;2022-09-01T09:00:38;17.58;;;15.88;;
10731;SDS011;5417;42.686;23.244;2022-09-01T09:03:12;15.95;;;14.60;;
10731;SDS011;5417;42.686;23.244;2022-09-01T09:05:55;14.88;;;13.65;;
10731;SDS011;5417;42.686;23.244;2022-09-01T09:08:53;16.67;;;15.25;;
10731;SDS011;5417;42.686;23.244;2022-09-01T09:11:27;14.27;;;13.10;;
10731;SDS011;5417;42.686;23.244;2022-09-01T09:14:30;16.08;;;14.73;;
10731;SDS011;5417;42.686;23.244;2022-09-01T09:17:07;17.00;;;15.65;;
10731;SDS011;5417;42.686;23.244;2022-09-01T09:19:36;17.42;;;16.02;;
10731;SDS011;5417;42.686;23.244;2022-09-01T09:22:05;17.47;;;15.77;;
10731;SDS011;5417;42.686;23.244;2022-09-01T09:24:39;15.87;;;14.27;;
10731;SDS011;5417;42.686;23.244;2022-09-01T09:27:15;17.63;;;15.90;;
10731;SDS011;5417;42.686;23.244;2022-09-01T09:29:45;16.10;;;14.45;;
10731;SDS011;5417;42.686;23.244;2022-09-01T09:32:12;17.77;;;14.67;;
10731;SDS011;5417;42.686;23.244;2022-09-01T09:34:40;16.90;;;15.23;;
10731;SDS011;5417;42.686;23.244;2022-09-01T09:37:19;14.77;;;13.63;;
10731;SDS011;5417;42.686;23.244;2022-09-01T09:40:03;15.88;;;14.45;;
10731;SDS011;5417;42.686;23.244;2022-09-01T09:42:35;14.30;;;13.10;;
10731;SDS011;5417;42.686;23.244;2022-09-01T09:45:06;14.77;;;13.55;;
10731;SDS011;5417;42.686;23.244;2022-09-01T09:47:46;17.40;;;15.60;;
10731;SDS011;5417;42.686;23.244;2022-09-01T09:50:21;14.40;;;13.25;;
10731;SDS011;5417;42.686;23.244;2022-09-01T09:52:51;14.18;;;12.80;;
10731;SDS011;5417;42.686;23.244;2022-09-01T09:55:23;15.25;;;13.90;;
10731;SDS011;5417;42.686;23.244;2022-09-01T09:57:53;15.25;;;13.77;;
10731;SDS011;5417;42.686;23.244;2022-09-01T10:00:24;14.25;;;12.85;;
10731;SDS011;5417;42.686;23.244;2022-09-01T10:02:54;14.32;;;13.00;;
10731;SDS011;5417;42.686;23.244;2022-09-01T10:05:27;14.30;;;12.95;;
10731;SDS011;5417;42.686;23.244;2022-09-01T10:07:59;14.02;;;12.77;;
10731;SDS011;5417;42.686;23.244;2022-09-01T10:10:30;12.43;;;11.38;;
10731;SDS011;5417;42.686;23.244;2022-09-01T10:13:03;13.15;;;11.77;;
10731;SDS011;5417;42.686;23.244;2022-09-01T10:15:33;14.50;;;13.10;;
10731;SDS011;5417;42.686;23.244;2022-09-01T10:18:02;14.00;;;12.73;;
10731;SDS011;5417;42.686;23.244;2022-09-01T10:20:33;14.38;;;12.68;;
10731;SDS011;5417;42.686;23.244;2022-09-01T10:23:03;14.32;;;12.93;;
10731;SDS011;5417;42.686;23.244;2022-09-01T10:25:32;13.82;;;12.60;;
10731;SDS011;5417;42.686;23.244;2022-09-01T10:28:02;13.73;;;12.45;;
10731;SDS011;5417;42.686;23.244;2022-09-01T10:30:36;13.75;;;12.35;;
10731;SDS011;5417;42.686;23.244;2022-09-01T10:33:07;13.60;;;12.40;;
10731;SDS011;5417;42.686;23.244;2022-09-01T10:35:36;13.05;;;11.35;;
10731;SDS011;5417;42.686;23.244;2022-09-01T10:38:07;12.70;;;11.60;;
10731;SDS011;5417;42.686;23.244;2022-09-01T10:40:39;13.77;;;12.02;;
10731;SDS011;5417;42.686;23.244;2022-09-01T10:49:12;12.65;;;11.45;;
10731;SDS011;5417;42.686;23.244;2022-09-01T10:51:45;12.30;;;11.02;;
10731;SDS011;5417;42.686;23.244;2022-09-01T11:09:30;13.45;;;12.15;;
10731;SDS011;5417;42.686;23.244;2022-09-01T11:18:09;18.15;;;15.75;;
10731;SDS011;5417;42.686;23.244;2022-09-01T11:20:40;17.30;;;13.60;;
10731;SDS011;5417;42.686;23.244;2022-09-01T11:23:10;15.70;;;14.25;;
10731;SDS011;5417;42.686;23.244;2022-09-01T11:25:45;15.70;;;14.20;;
10731;SDS011;5417;42.686;23.244;2022-09-01T11:31:26;15.52;;;14.10;;
10731;SDS011;5417;42.686;23.244;2022-09-01T11:34:12;17.27;;;13.75;;
10731;SDS011;5417;42.686;23.244;2022-09-01T11:36:50;20.02;;;14.27;;
10731;SDS011;5417;42.686;23.244;2022-09-01T11:39:26;15.73;;;14.02;;
10731;SDS011;5417;42.686;23.244;2022-09-01T11:41:57;14.95;;;13.40;;
10731;SDS011;5417;42.686;23.244;2022-09-01T11:44:30;14.80;;;13.30;;
10731;SDS011;5417;42.686;23.244;2022-09-01T11:47:05;16.13;;;14.10;;
10731;SDS011;5417;42.686;23.244;2022-09-01T11:49:36;14.80;;;13.38;;
10731;SDS011;5417;42.686;23.244;2022-09-01T11:52:05;15.30;;;13.75;;
10731;SDS011;5417;42.686;23.244;2022-09-01T11:54:41;14.90;;;13.52;;
10731;SDS011;5417;42.686;23.244;2022-09-01T11:57:24;15.45;;;13.20;;
10731;SDS011;5417;42.686;23.244;2022-09-01T11:59:54;14.90;;;13.43;;
10731;SDS011;5417;42.686;23.244;2022-09-01T12:02:23;13.57;;;12.27;;
10731;SDS011;5417;42.686;23.244;2022-09-01T12:04:52;13.85;;;12.57;;
10731;SDS011;5417;42.686;23.244;2022-09-01T12:07:24;16.75;;;13.82;;
10731;SDS011;5417;42.686;23.244;2022-09-01T12:09:55;18.17;;;13.55;;
10731;SDS011;5417;42.686;23.244;2022-09-01T12:12:30;13.77;;;12.43;;
10731;SDS011;5417;42.686;23.244;2022-09-01T12:14:59;13.68;;;12.48;;
10731;SDS011;5417;42.686;23.244;2022-09-01T12:17:30;12.80;;;11.70;;
10731;SDS011;5417;42.686;23.244;2022-09-01T12:22:46;13.98;;;12.70;;
10731;SDS011;5417;42.686;23.244;2022-09-01T12:25:17;12.45;;;11.27;;
10731;SDS011;5417;42.686;23.244;2022-09-01T12:27:47;13.18;;;11.85;;
10731;SDS011;5417;42.686;23.244;2022-09-01T12:30:17;12.07;;;11.02;;
10731;SDS011;5417;42.686;23.244;2022-09-01T12:32:47;14.18;;;12.90;;
10731;SDS011;5417;42.686;23.244;2022-09-01T12:35:15;13.02;;;11.90;;
10731;SDS011;5417;42.686;23.244;2022-09-01T12:37:46;12.52;;;11.30;;
10731;SDS011;5417;42.686;23.244;2022-09-01T12:40:24;15.00;;;13.63;;
10731;SDS011;5417;42.686;23.244;2022-09-01T12:43:00;13.95;;;12.43;;
10731;SDS011;5417;42.686;23.244;2022-09-01T12:45:40;14.68;;;12.93;;
10731;SDS011;5417;42.686;23.244;2022-09-01T12:48:23;13.38;;;12.35;;
10731;SDS011;5417;42.686;23.244;2022-09-01T12:50:53;13.32;;;12.23;;
10731;SDS011;5417;42.686;23.244;2022-09-01T12:53:25;12.85;;;11.68;;
10731;SDS011;5417;42.686;23.244;2022-09-01T12:59:19;13.15;;;11.98;;
10731;SDS011;5417;42.686;23.244;2022-09-01T13:08:03;14.10;;;12.82;;
10731;SDS011;5417;42.686;23.244;2022-09-01T13:10:33;13.55;;;12.32;;
10731;SDS011;5417;42.686;23.244;2022-09-01T13:13:03;13.23;;;12.13;;
10731;SDS011;5417;42.686;23.244;2022-09-01T13:22:28;13.95;;;12.85;;
10731;SDS011;5417;42.686;23.244;2022-09-01T13:24:56;14.13;;;12.95;;
10731;SDS011;5417;42.686;23.244;2022-09-01T13:27:23;13.20;;;12.13;;
10731;SDS011;5417;42.686;23.244;2022-09-01T13:29:50;13.63;;;12.33;;
10731;SDS011;5417;42.686;23.244;2022-09-01T13:32:19;13.90;;;12.45;;
10731;SDS011;5417;42.686;23.244;2022-09-01T13:34:48;19.52;;;13.43;;
10731;SDS011;5417;42.686;23.244;2022-09-01T13:40:39;14.87;;;13.47;;
10731;SDS011;5417;42.686;23.244;2022-09-01T13:46:28;17.43;;;13.63;;
10731;SDS011;5417;42.686;23.244;2022-09-01T13:52:17;14.40;;;13.13;;
10731;SDS011;5417;42.686;23.244;2022-09-01T13:58:08;13.63;;;12.37;;
10731;SDS011;5417;42.686;23.244;2022-09-01T14:00:38;14.80;;;13.40;;
10731;SDS011;5417;42.686;23.244;2022-09-01T14:03:07;16.35;;;14.57;;
10731;SDS011;5417;42.686;23.244;2022-09-01T14:05:37;15.18;;;13.77;;
10731;SDS011;5417;42.686;23.244;2022-09-01T14:08:07;15.10;;;12.90;;
10731;SDS011;5417;42.686;23.244;2022-09-01T14:10:36;15.13;;;13.50;;
10731;SDS011;5417;42.686;23.244;2022-09-01T14:13:13;15.13;;;13.70;;
10731;SDS011;5417;42.686;23.244;2022-09-01T14:15:40;14.70;;;13.50;;
10731;SDS011;5417;42.686;23.244;2022-09-01T14:18:09;14.00;;;12.73;;
10731;SDS011;5417;42.686;23.244;2022-09-01T14:20:38;14.13;;;12.93;;
10731;SDS011;5417;42.686;23.244;2022-09-01T14:23:09;14.47;;;13.27;;
10731;SDS011;5417;42.686;23.244;2022-09-01T14:25:41;13.07;;;12.00;;
10731;SDS011;5417;42.686;23.244;2022-09-01T14:28:09;16.27;;;12.50;;
10731;SDS011;5417;42.686;23.244;2022-09-01T14:30:39;13.70;;;12.50;;
10731;SDS011;5417;42.686;23.244;2022-09-01T14:33:08;21.00;;;19.20;;
10731;SDS011;5417;42.686;23.244;2022-09-01T14:35:36;13.83;;;12.57;;
10731;SDS011;5417;42.686;23.244;2022-09-01T14:38:04;14.67;;;13.23;;
10731;SDS011;5417;42.686;23.244;2022-09-01T14:40:33;13.97;;;12.67;;
10731;SDS011;5417;42.686;23.244;2022-09-01T14:43:01;13.67;;;12.57;;
10731;SDS011;5417;42.686;23.244;2022-09-01T14:45:28;13.50;;;12.40;;
10731;SDS011;5417;42.686;23.244;2022-09-01T14:47:57;13.20;;;12.10;;
10731;SDS011;5417;42.686;23.244;2022-09-01T14:50:26;16.67;;;13.40;;
10731;SDS011;5417;42.686;23.244;2022-09-01T14:52:56;13.87;;;12.63;;
10731;SDS011;5417;42.686;23.244;2022-09-01T14:55:24;15.10;;;13.37;;
10731;SDS011;5417;42.686;23.244;2022-09-01T14:57:56;13.73;;;12.57;;
10731;SDS011;5417;42.686;23.244;2022-09-01T15:00:24;13.83;;;12.70;;
10731;SDS011;5417;42.686;23.244;2022-09-01T15:02:52;14.07;;;12.83;;
10731;SDS011;5417;42.686;23.244;2022-09-01T15:05:22;14.00;;;12.90;;
10731;SDS011;5417;42.686;23.244;2022-09-01T15:07:50;14.90;;;13.43;;
10731;SDS011;5417;42.686;23.244;2022-09-01T15:10:18;13.77;;;12.53;;
10731;SDS011;5417;42.686;23.244;2022-09-01T15:12:46;12.50;;;11.50;;
10731;SDS011;5417;42.686;23.244;2022-09-01T15:15:14;12.27;;;11.20;;
10731;SDS011;5417;42.686;23.244;2022-09-01T15:17:42;13.30;;;11.37;;
10731;SDS011;5417;42.686;23.244;2022-09-01T15:20:08;11.90;;;10.80;;
10731;SDS011;5417;42.686;23.244;2022-09-01T15:22:54;12.23;;;11.13;;
10731;SDS011;5417;42.686;23.244;2022-09-01T15:25:21;14.40;;;13.10;;
10731;SDS011;5417;42.686;23.244;2022-09-01T15:27:49;13.97;;;12.67;;
10731;SDS011;5417;42.686;23.244;2022-09-01T15:30:16;15.00;;;13.43;;
10731;SDS011;5417;42.686;23.244;2022-09-01T15:32:44;14.23;;;12.87;;
10731;SDS011;5417;42.686;23.244;2022-09-01T15:35:13;12.77;;;11.80;;
10731;SDS011;5417;42.686;23.244;2022-09-01T15:37:41;13.70;;;12.37;;
10731;SDS011;5417;42.686;23.244;2022-09-01T15:40:10;14.23;;;13.07;;
10731;SDS011;5417;42.686;23.244;2022-09-01T15:42:37;14.13;;;12.73;;
10731;SDS011;5417;42.686;23.244;2022-09-01T15:45:05;13.40;;;12.20;;
10731;SDS011;5417;42.686;23.244;2022-09-01T15:47:35;14.33;;;12.93;;
10731;SDS011;5417;42.686;23.244;2022-09-01T15:50:02;14.50;;;12.97;;
10731;SDS011;5417;42.686;23.244;2022-09-01T15:52:31;14.70;;;13.40;;
10731;SDS011;5417;42.686;23.244;2022-09-01T15:55:01;13.87;;;12.10;;
10731;SDS011;5417;42.686;23.244;2022-09-01T15:57:30;14.63;;;13.13;;
10731;SDS011;5417;42.686;23.244;2022-09-01T15:59:59;13.37;;;12.33;;
10731;SDS011;5417;42.686;23.244;2022-09-01T16:02:26;14.37;;;13.17;;
10731;SDS011;5417;42.686;23.244;2022-09-01T16:04:53;15.53;;;14.00;;
10731;SDS011;5417;42.686;23.244;2022-09-01T16:07:21;15.43;;;14.00;;
10731;SDS011;5417;42.686;23.244;2022-09-01T16:09:48;14.63;;;13.30;;
10731;SDS011;5417;42.686;23.244;2022-09-01T16:12:16;15.53;;;14.10;;
10731;SDS011;5417;42.686;23.244;2022-09-01T16:14:46;15.47;;;13.97;;
10731;SDS011;5417;42.686;23.244;2022-09-01T16:17:19;14.17;;;12.70;;
10731;SDS011;5417;42.686;23.244;2022-09-01T16:19:53;13.53;;;12.23;;
10731;SDS011;5417;42.686;23.244;2022-09-01T16:22:27;12.23;;;11.10;;
10731;SDS011;5417;42.686;23.244;2022-09-01T16:24:58;12.57;;;11.27;;
10731;SDS011;5417;42.686;23.244;2022-09-01T16:27:28;13.43;;;12.17;;
10731;SDS011;5417;42.686;23.244;2022-09-01T16:30:00;14.67;;;12.03;;
10731;SDS011;5417;42.686;23.244;2022-09-01T16:32:29;14.03;;;12.63;;
10731;SDS011;5417;42.686;23.244;2022-09-01T16:34:57;14.60;;;13.23;;
10731;SDS011;5417;42.686;23.244;2022-09-01T16:37:33;13.97;;;12.73;;
10731;SDS011;5417;42.686;23.244;2022-09-01T16:40:11;14.67;;;13.27;;
10731;SDS011;5417;42.686;23.244;2022-09-01T16:42:47;14.90;;;13.43;;
10731;SDS011;5417;42.686;23.244;2022-09-01T16:45:24;14.23;;;12.83;;
10731;SDS011;5417;42.686;23.244;2022-09-01T16:48:02;16.57;;;13.00;;
10731;SDS011;5417;42.686;23.244;2022-09-01T16:50:39;13.07;;;11.80;;
10731;SDS011;5417;42.686;23.244;2022-09-01T16:53:12;13.57;;;12.47;;
10731;SDS011;5417;42.686;23.244;2022-09-01T16:55:53;13.57;;;12.20;;
10731;SDS011;5417;42.686;23.244;2022-09-01T16:58:25;14.17;;;12.93;;
10731;SDS011;5417;42.686;23.244;2022-09-01T17:01:08;14.93;;;13.00;;
10731;SDS011;5417;42.686;23.244;2022-09-01T17:03:49;14.80;;;13.27;;
10731;SDS011;5417;42.686;23.244;2022-09-01T17:06:24;15.80;;;14.00;;
10731;SDS011;5417;42.686;23.244;2022-09-01T17:08:59;14.57;;;13.50;;
10731;SDS011;5417;42.686;23.244;2022-09-01T17:11:35;17.43;;;12.93;;
10731;SDS011;5417;42.686;23.244;2022-09-01T17:14:11;14.03;;;12.73;;
10731;SDS011;5417;42.686;23.244;2022-09-01T17:16:48;14.43;;;12.93;;
10731;SDS011;5417;42.686;23.244;2022-09-01T17:19:19;15.70;;;14.10;;
10731;SDS011;5417;42.686;23.244;2022-09-01T17:21:48;15.17;;;13.57;;
10731;SDS011;5417;42.686;23.244;2022-09-01T17:24:22;16.03;;;13.17;;
10731;SDS011;5417;42.686;23.244;2022-09-01T17:26:58;15.07;;;12.97;;
10731;SDS011;5417;42.686;23.244;2022-09-01T17:29:33;14.23;;;12.83;;
10731;SDS011;5417;42.686;23.244;2022-09-01T17:32:08;15.77;;;14.00;;
10731;SDS011;5417;42.686;23.244;2022-09-01T17:34:48;15.97;;;13.07;;
10731;SDS011;5417;42.686;23.244;2022-09-01T17:37:22;15.80;;;14.37;;
10731;SDS011;5417;42.686;23.244;2022-09-01T17:40:00;14.73;;;13.40;;
10731;SDS011;5417;42.686;23.244;2022-09-01T17:42:38;14.53;;;13.23;;
10731;SDS011;5417;42.686;23.244;2022-09-01T17:45:18;14.80;;;13.30;;
10731;SDS011;5417;42.686;23.244;2022-09-01T17:47:56;15.47;;;13.87;;
10731;SDS011;5417;42.686;23.244;2022-09-01T17:50:33;13.93;;;12.63;;
10731;SDS011;5417;42.686;23.244;2022-09-01T17:53:12;15.13;;;13.63;;
10731;SDS011;5417;42.686;23.244;2022-09-01T17:55:52;14.90;;;13.40;;
10731;SDS011;5417;42.686;23.244;2022-09-01T17:58:28;15.47;;;14.07;;
10731;SDS011;5417;42.686;23.244;2022-09-01T18:01:05;15.50;;;13.90;;
10731;SDS011;5417;42.686;23.244;2022-09-01T18:03:39;17.27;;;15.57;;
10731;SDS011;5417;42.686;23.244;2022-09-01T18:06:20;16.60;;;15.10;;
10731;SDS011;5417;42.686;23.244;2022-09-01T18:08:51;15.20;;;13.77;;
10731;SDS011;5417;42.686;23.244;2022-09-01T18:11:24;19.00;;;14.73;;
10731;SDS011;5417;42.686;23.244;2022-09-01T18:14:01;17.63;;;14.33;;
10731;SDS011;5417;42.686;23.244;2022-09-01T18:16:35;16.93;;;13.93;;
10731;SDS011;5417;42.686;23.244;2022-09-01T18:19:13;14.03;;;12.60;;
10731;SDS011;5417;42.686;23.244;2022-09-01T18:21:46;13.57;;;12.37;;
10731;SDS011;5417;42.686;23.244;2022-09-01T18:31:04;14.50;;;13.20;;
10731;SDS011;5417;42.686;23.244;2022-09-01T18:50:21;16.07;;;13.67;;
10731;SDS011;5417;42.686;23.244;2022-09-01T18:52:56;13.77;;;12.13;;
10731;SDS011;5417;42.686;23.244;2022-09-01T18:55:34;13.23;;;12.03;;
10731;SDS011;5417;42.686;23.244;2022-09-01T18:58:07;13.07;;;11.73;;
10731;SDS011;5417;42.686;23.244;2022-09-01T19:00:43;12.97;;;11.77;;
10731;SDS011;5417;42.686;23.244;2022-09-01T19:03:21;21.00;;;18.80;;
10731;SDS011;5417;42.686;23.244;2022-09-01T19:05:56;17.33;;;15.73;;
10731;SDS011;5417;42.686;23.244;2022-09-01T19:08:38;14.03;;;12.43;;
10731;SDS011;5417;42.686;23.244;2022-09-01T19:11:13;12.03;;;10.80;;
10731;SDS011;5417;42.686;23.244;2022-09-01T19:13:51;11.83;;;10.73;;
10731;SDS011;5417;42.686;23.244;2022-09-01T19:16:28;11.67;;;10.47;;
10731;SDS011;5417;42.686;23.244;2022-09-01T19:19:04;11.47;;;10.37;;
10731;SDS011;5417;42.686;23.244;2022-09-01T19:21:40;12.13;;;10.93;;
10731;SDS011;5417;42.686;23.244;2022-09-01T19:24:12;11.47;;;10.57;;
10731;SDS011;5417;42.686;23.244;2022-09-01T19:26:45;11.47;;;10.37;;
10731;SDS011;5417;42.686;23.244;2022-09-01T19:29:17;11.53;;;10.33;;
10731;SDS011;5417;42.686;23.244;2022-09-01T19:31:49;13.53;;;11.10;;
10731;SDS011;5417;42.686;23.244;2022-09-01T19:34:22;11.90;;;10.90;;
10731;SDS011;5417;42.686;23.244;2022-09-01T19:36:54;12.13;;;10.90;;
10731;SDS011;5417;42.686;23.244;2022-09-01T19:39:24;10.80;;;9.93;;
10731;SDS011;5417;42.686;23.244;2022-09-01T19:41:53;11.03;;;10.03;;
10731;SDS011;5417;42.686;23.244;2022-09-01T19:44:28;11.37;;;10.23;;
10731;SDS011;5417;42.686;23.244;2022-09-01T19:47:04;11.53;;;10.50;;
10731;SDS011;5417;42.686;23.244;2022-09-01T19:49:38;10.87;;;9.90;;
10731;SDS011;5417;42.686;23.244;2022-09-01T19:52:12;12.23;;;11.27;;
10731;SDS011;5417;42.686;23.244;2022-09-01T19:54:49;11.30;;;10.17;;
10731;SDS011;5417;42.686;23.244;2022-09-01T19:57:26;12.37;;;10.87;;
10731;SDS011;5417;42.686;23.244;2022-09-01T19:59:59;12.03;;;10.90;;
10731;SDS011;5417;42.686;23.244;2022-09-01T20:02:34;11.87;;;10.77;;
10731;SDS011;5417;42.686;23.244;2022-09-01T20:05:08;11.33;;;10.33;;
10731;SDS011;5417;42.686;23.244;2022-09-01T20:07:45;10.80;;;9.90;;
10731;SDS011;5417;42.686;23.244;2022-09-01T20:10:25;13.07;;;11.90;;
10731;SDS011;5417;42.686;23.244;2022-09-01T20:13:24;11.87;;;10.77;;
10731;SDS011;5417;42.686;23.244;2022-09-01T20:16:25;11.03;;;10.17;;
10731;SDS011;5417;42.686;23.244;2022-09-01T20:18:58;13.10;;;11.80;;
10731;SDS011;5417;42.686;23.244;2022-09-01T20:21:34;13.30;;;12.00;;
10731;SDS011;5417;42.686;23.244;2022-09-01T20:24:13;11.60;;;10.60;;
10731;SDS011;5417;42.686;23.244;2022-09-01T20:26:47;11.90;;;10.90;;
10731;SDS011;5417;42.686;23.244;2022-09-01T20:29:23;12.07;;;10.97;;
10731;SDS011;5417;42.686;23.244;2022-09-01T20:31:54;12.30;;;11.20;;
10731;SDS011;5417;42.686;23.244;2022-09-01T20:34:26;12.60;;;11.30;;